Allouez, Michigan
Current Conditions -  °F | °C
As of 1:53 AM on Wednesday 22 Oct 2014 (Local Time) from KCMX Reporting Station
Clear Clear  
Wind Chill: 28°   Ceiling: Unl
Heat Index: 34°   Visibility: 10mi
Dew Point: 31°   Wind: 7mph
Humidity: 89%   Direction: 120°ESE
Pressure: 30.29"   Gusts: NA
Location:  47.29°N, 88.41°W
Report Text: KCMX 220553Z AUTO 12006KT 10SM CLR 01/M01 A3029 RMK AO2 SLP267 T00111006 10028 20006 53001
Loading
Personal Weather Stations






























Interactive Weather Map New forecast layout! Learn more

10-Day Weather Forecast

Advertisements
Track Severe Weather on mobile